Time;durP1;ratioP1;P1;durP2;ratioP2;P2;SDS_P1;SDS_P2;PMS_P1;PMS_P2;Temp;Humidity;BMP_temperature;BMP_pressure;BME280_temperature;BME280_humidity;BME280_pressure;Samples;Min_cycle;Max_cycle;Signal;HPM_P1;HPM_P2
2021/07/04 00:02:07;;;;;;;0.00;0.00;;;;;;;;;;5063026;28;20201;-66
2021/07/04 00:04:33;;;;;;;0.00;0.00;;;;;;;;;;5063534;28;20253;-67
2021/07/04 00:07:01;;;;;;;0.10;0.10;;;;;;;;;;5063109;28;20555;-66
2021/07/04 00:09:27;;;;;;;0.10;0.10;;;;;;;;;;5062983;28;20210;-68
2021/07/04 00:11:53;;;;;;;0.00;0.00;;;;;;;;;;5062858;28;20210;-67
2021/07/04 00:14:20;;;;;;;0.00;0.00;;;;;;;;;;5063247;28;20206;-68
2021/07/04 00:16:46;;;;;;;0.00;0.00;;;;;;;;;;5062608;28;20228;-67
2021/07/04 00:19:13;;;;;;;0.00;0.00;;;;;;;;;;5062678;28;20209;-67
2021/07/04 00:21:39;;;;;;;0.00;0.00;;;;;;;;;;5062896;28;20207;-67
2021/07/04 00:24:07;;;;;;;0.10;0.10;;;;;;;;;;5062741;28;20245;-68
2021/07/04 00:26:33;;;;;;;0.00;0.00;;;;;;;;;;5062599;28;20235;-68
2021/07/04 00:29:00;;;;;;;0.00;0.00;;;;;;;;;;5062578;28;20322;-68
2021/07/04 00:31:26;;;;;;;0.05;0.05;;;;;;;;;;5062469;28;20203;-67
2021/07/04 00:33:52;;;;;;;0.00;0.00;;;;;;;;;;5062878;28;20494;-68
2021/07/04 00:36:19;;;;;;;0.00;0.00;;;;;;;;;;5062649;28;20341;-67
2021/07/04 00:38:45;;;;;;;0.10;0.10;;;;;;;;;;5062815;28;20255;-67
2021/07/04 00:41:13;;;;;;;0.00;0.00;;;;;;;;;;5062781;28;20491;-67
2021/07/04 00:43:39;;;;;;;0.00;0.00;;;;;;;;;;5062551;28;20209;-67
2021/07/04 00:46:05;;;;;;;0.00;0.00;;;;;;;;;;5062894;28;20211;-68
2021/07/04 00:48:31;;;;;;;0.10;0.10;;;;;;;;;;5062640;28;20524;-67
2021/07/04 00:50:58;;;;;;;0.00;0.00;;;;;;;;;;5062592;28;20213;-68
2021/07/04 00:53:24;;;;;;;0.10;0.10;;;;;;;;;;5062592;28;20200;-68
2021/07/04 00:55:50;;;;;;;0.10;0.10;;;;;;;;;;5062667;28;20249;-67
2021/07/04 00:58:18;;;;;;;0.08;0.08;;;;;;;;;;5062316;28;20228;-69
2021/07/04 01:00:45;;;;;;;0.03;0.03;;;;;;;;;;5062188;28;20205;-68
2021/07/04 01:03:11;;;;;;;0.00;0.00;;;;;;;;;;5062118;28;20210;-68
2021/07/04 01:05:39;;;;;;;0.00;0.00;;;;;;;;;;5062347;28;20518;-67
2021/07/04 01:08:06;;;;;;;0.00;0.00;;;;;;;;;;5062453;28;20233;-67
2021/07/04 01:10:32;;;;;;;0.00;0.00;;;;;;;;;;5061902;28;20230;-68
2021/07/04 01:12:59;;;;;;;0.10;0.10;;;;;;;;;;5063101;28;20254;-68
2021/07/04 01:15:27;;;;;;;0.10;0.10;;;;;;;;;;5062199;28;20224;-68
2021/07/04 01:17:55;;;;;;;0.00;0.00;;;;;;;;;;5061927;28;20253;-67
2021/07/04 01:20:22;;;;;;;0.00;0.00;;;;;;;;;;5062551;28;20271;-68
2021/07/04 01:22:56;;;;;;;0.00;0.00;;;;;;;;;;5062136;28;20218;-67
2021/07/04 01:25:23;;;;;;;0.00;0.00;;;;;;;;;;5062186;28;20229;-67
2021/07/04 01:27:49;;;;;;;0.10;0.10;;;;;;;;;;5064327;28;20435;-67
2021/07/04 01:30:16;;;;;;;0.00;0.00;;;;;;;;;;5065400;28;20206;-67
2021/07/04 01:32:42;;;;;;;0.00;0.00;;;;;;;;;;5066094;28;20202;-68
2021/07/04 01:35:09;;;;;;;0.10;0.10;;;;;;;;;;5066065;28;20205;-67
2021/07/04 01:37:36;;;;;;;0.00;0.00;;;;;;;;;;5066046;28;20295;-66
2021/07/04 01:40:04;;;;;;;0.10;0.10;;;;;;;;;;5065750;28;20207;-67
2021/07/04 01:42:30;;;;;;;0.00;0.00;;;;;;;;;;5066056;28;20216;-67
2021/07/04 01:44:56;;;;;;;0.00;0.00;;;;;;;;;;5066225;28;20211;-68
2021/07/04 01:47:23;;;;;;;0.10;0.10;;;;;;;;;;5065278;28;20206;-67
2021/07/04 01:49:49;;;;;;;0.00;0.00;;;;;;;;;;5066007;28;20306;-66
2021/07/04 01:52:15;;;;;;;0.00;0.00;;;;;;;;;;5066016;28;20351;-68
2021/07/04 01:54:42;;;;;;;0.10;0.10;;;;;;;;;;5065923;28;20241;-66
2021/07/04 01:57:12;;;;;;;0.00;0.00;;;;;;;;;;5065760;28;20278;-68
2021/07/04 01:59:39;;;;;;;0.00;0.00;;;;;;;;;;5065497;28;20365;-68
2021/07/04 02:02:05;;;;;;;0.00;0.00;;;;;;;;;;5065679;28;20210;-67
2021/07/04 02:04:31;;;;;;;0.00;0.00;;;;;;;;;;5065335;28;20207;-68
2021/07/04 02:06:57;;;;;;;0.00;0.00;;;;;;;;;;5051619;28;20255;-67
2021/07/04 02:09:24;;;;;;;0.00;0.00;;;;;;;;;;5065256;28;20446;-66
2021/07/04 02:11:50;;;;;;;0.00;0.00;;;;;;;;;;5065481;28;20204;-66
2021/07/04 02:14:18;;;;;;;0.00;0.00;;;;;;;;;;5065444;28;20263;-67
2021/07/04 02:16:44;;;;;;;0.00;0.00;;;;;;;;;;5065339;28;20438;-67
2021/07/04 02:19:10;;;;;;;0.00;0.00;;;;;;;;;;5064856;28;20202;-66
2021/07/04 02:21:36;;;;;;;0.10;0.10;;;;;;;;;;5065303;28;20210;-68
2021/07/04 02:24:03;;;;;;;0.00;0.00;;;;;;;;;;5065346;28;20250;-66
2021/07/04 02:26:29;;;;;;;0.00;0.00;;;;;;;;;;5064674;28;20222;-67
2021/07/04 02:28:55;;;;;;;0.10;0.10;;;;;;;;;;5064981;28;20269;-66
2021/07/04 02:31:23;;;;;;;0.00;0.00;;;;;;;;;;5065160;28;20368;-67
2021/07/04 02:33:49;;;;;;;0.10;0.10;;;;;;;;;;5065211;28;20258;-65
2021/07/04 02:36:15;;;;;;;0.10;0.10;;;;;;;;;;5064916;28;20237;-66
2021/07/04 02:38:42;;;;;;;0.00;0.00;;;;;;;;;;5064262;28;20386;-67
2021/07/04 02:41:08;;;;;;;0.00;0.00;;;;;;;;;;5064477;28;20236;-68
2021/07/04 02:43:34;;;;;;;0.10;0.10;;;;;;;;;;5065124;28;20271;-69
2021/07/04 02:46:00;;;;;;;0.03;0.03;;;;;;;;;;5064484;28;20207;-68
2021/07/04 02:48:28;;;;;;;0.00;0.00;;;;;;;;;;5064689;28;20266;-66
2021/07/04 02:50:54;;;;;;;0.00;0.00;;;;;;;;;;5064685;28;20226;-67
2021/07/04 02:53:20;;;;;;;1.88;1.88;;;;;;;;;;5050759;28;20210;-66
2021/07/04 02:55:47;;;;;;;0.00;0.00;;;;;;;;;;5064668;28;20422;-68
2021/07/04 02:58:13;;;;;;;0.00;0.00;;;;;;;;;;5064598;28;20294;-67
2021/07/04 03:00:41;;;;;;;0.05;0.05;;;;;;;;;;5064657;28;20214;-67
2021/07/04 03:03:07;;;;;;;0.00;0.00;;;;;;;;;;5064375;28;20205;-67
2021/07/04 03:05:35;;;;;;;0.00;0.00;;;;;;;;;;5064527;28;20245;-67
2021/07/04 03:08:02;;;;;;;0.08;0.08;;;;;;;;;;5063863;28;20214;-66
2021/07/04 03:10:28;;;;;;;0.00;0.00;;;;;;;;;;5064104;28;20319;-67
2021/07/04 03:12:55;;;;;;;0.10;0.10;;;;;;;;;;5064178;28;20248;-68
2021/07/04 03:15:22;;;;;;;0.00;0.00;;;;;;;;;;5064313;28;20200;-67
2021/07/04 03:17:48;;;;;;;0.10;0.10;;;;;;;;;;5063814;28;20206;-67
2021/07/04 03:20:15;;;;;;;0.10;0.10;;;;;;;;;;5063689;28;20194;-69
2021/07/04 03:22:43;;;;;;;0.03;0.03;;;;;;;;;;5064214;28;20202;-68
2021/07/04 03:25:10;;;;;;;0.00;0.00;;;;;;;;;;5062181;28;20231;-66
2021/07/04 03:27:37;;;;;;;0.00;0.00;;;;;;;;;;5052162;28;20205;-68
2021/07/04 03:30:08;;;;;;;0.00;0.00;;;;;;;;;;5064303;28;20288;-66
2021/07/04 03:32:34;;;;;;;0.00;0.00;;;;;;;;;;5063910;28;20228;-68
2021/07/04 03:35:00;;;;;;;0.10;0.10;;;;;;;;;;5063538;28;20275;-67
2021/07/04 03:37:27;;;;;;;0.00;0.00;;;;;;;;;;5063604;28;20201;-66
2021/07/04 03:39:54;;;;;;;0.10;0.10;;;;;;;;;;5063749;28;20233;-67
2021/07/04 03:42:20;;;;;;;0.00;0.00;;;;;;;;;;5063806;28;20246;-68
2021/07/04 03:44:47;;;;;;;0.00;0.00;;;;;;;;;;5063526;28;20380;-67
2021/07/04 03:47:13;;;;;;;0.00;0.00;;;;;;;;;;5063979;28;20312;-67
2021/07/04 03:49:39;;;;;;;0.00;0.00;;;;;;;;;;5063442;28;20226;-69
2021/07/04 03:52:05;;;;;;;0.00;0.00;;;;;;;;;;5062845;28;20318;-67
2021/07/04 03:54:32;;;;;;;0.00;0.00;;;;;;;;;;5063771;28;20262;-67
2021/07/04 03:56:59;;;;;;;0.00;0.00;;;;;;;;;;5063350;28;20245;-68
2021/07/04 03:59:26;;;;;;;0.00;0.00;;;;;;;;;;5063597;28;20263;-67
2021/07/04 04:01:52;;;;;;;0.00;0.00;;;;;;;;;;5062802;28;20217;-67
2021/07/04 04:04:18;;;;;;;0.00;0.00;;;;;;;;;;5063031;28;20232;-67
2021/07/04 04:06:44;;;;;;;0.00;0.00;;;;;;;;;;5063019;28;20205;-67
2021/07/04 04:09:10;;;;;;;0.00;0.00;;;;;;;;;;5063260;28;20228;-68
2021/07/04 04:11:37;;;;;;;0.10;0.10;;;;;;;;;;5063253;28;20260;-67
2021/07/04 04:14:04;;;;;;;0.00;0.00;;;;;;;;;;5062869;28;20201;-68
2021/07/04 04:16:30;;;;;;;0.00;0.00;;;;;;;;;;5062758;28;20214;-67
2021/07/04 04:18:57;;;;;;;0.10;0.10;;;;;;;;;;5062968;28;20274;-68
2021/07/04 04:21:23;;;;;;;0.00;0.00;;;;;;;;;;5062753;28;20208;-68
2021/07/04 04:23:49;;;;;;;0.00;0.00;;;;;;;;;;5062638;28;20300;-67
2021/07/04 04:26:15;;;;;;;0.10;0.10;;;;;;;;;;5063152;28;20320;-68
2021/07/04 04:28:42;;;;;;;0.10;0.10;;;;;;;;;;5062938;28;20228;-67
2021/07/04 04:31:09;;;;;;;0.08;0.08;;;;;;;;;;5062660;28;20276;-67
2021/07/04 04:33:36;;;;;;;0.10;0.10;;;;;;;;;;5062892;28;20249;-67
2021/07/04 04:36:02;;;;;;;0.00;0.00;;;;;;;;;;5062725;28;20208;-68
2021/07/04 04:38:28;;;;;;;0.10;0.10;;;;;;;;;;5058741;28;20205;-67
2021/07/04 04:40:55;;;;;;;0.00;0.00;;;;;;;;;;5062882;28;20201;-66
2021/07/04 04:43:21;;;;;;;0.00;0.00;;;;;;;;;;5062922;28;20206;-68
2021/07/04 04:45:47;;;;;;;0.00;0.00;;;;;;;;;;5062685;28;20418;-67
2021/07/04 04:48:15;;;;;;;0.00;0.00;;;;;;;;;;5062682;28;20273;-67
2021/07/04 04:50:41;;;;;;;0.00;0.00;;;;;;;;;;5062358;28;20536;-68
2021/07/04 04:53:08;;;;;;;0.05;0.05;;;;;;;;;;5062307;28;20203;-67
2021/07/04 04:55:34;;;;;;;0.10;0.10;;;;;;;;;;5062337;28;20212;-67
2021/07/04 04:58:00;;;;;;;0.10;0.10;;;;;;;;;;5062519;28;20233;-68
2021/07/04 05:00:27;;;;;;;0.00;0.00;;;;;;;;;;5062677;28;20217;-68
2021/07/04 05:02:53;;;;;;;0.10;0.10;;;;;;;;;;5061943;28;20392;-69
2021/07/04 05:05:21;;;;;;;0.00;0.00;;;;;;;;;;5062041;28;20208;-68
2021/07/04 05:07:48;;;;;;;0.00;0.00;;;;;;;;;;5061975;28;20567;-67
2021/07/04 05:10:14;;;;;;;0.00;0.00;;;;;;;;;;5062409;28;20221;-68
2021/07/04 05:12:40;;;;;;;0.00;0.00;;;;;;;;;;5062590;28;20246;-67
2021/07/04 05:15:07;;;;;;;0.00;0.00;;;;;;;;;;5062135;28;20503;-67
2021/07/04 05:17:33;;;;;;;0.00;0.00;;;;;;;;;;5062136;28;20214;-69
2021/07/04 05:20:00;;;;;;;0.00;0.00;;;;;;;;;;5062079;28;20283;-68
2021/07/04 05:22:27;;;;;;;0.00;0.00;;;;;;;;;;5062419;28;20444;-69
2021/07/04 05:24:54;;;;;;;0.00;0.00;;;;;;;;;;5061790;28;20238;-69
2021/07/04 05:27:20;;;;;;;0.00;0.00;;;;;;;;;;5062272;28;20229;-68
2021/07/04 05:29:46;;;;;;;0.00;0.00;;;;;;;;;;5062218;28;20263;-68
2021/07/04 05:32:12;;;;;;;0.10;0.10;;;;;;;;;;5061943;28;20517;-68
2021/07/04 05:34:39;;;;;;;0.00;0.00;;;;;;;;;;5062152;28;20207;-68
2021/07/04 05:37:05;;;;;;;0.00;0.00;;;;;;;;;;5061811;28;20210;-68
2021/07/04 05:39:33;;;;;;;0.10;0.10;;;;;;;;;;5061778;28;20202;-68
2021/07/04 05:41:59;;;;;;;0.08;0.08;;;;;;;;;;5062069;28;20325;-68
2021/07/04 05:44:25;;;;;;;0.00;0.00;;;;;;;;;;5061754;28;20331;-68
2021/07/04 05:46:51;;;;;;;0.00;0.00;;;;;;;;;;5062054;28;20205;-68
2021/07/04 05:49:18;;;;;;;0.00;0.00;;;;;;;;;;5061299;28;20230;-67
2021/07/04 05:51:45;;;;;;;0.10;0.10;;;;;;;;;;5048948;28;20254;-68
2021/07/04 05:54:11;;;;;;;0.10;0.10;;;;;;;;;;5062145;28;20264;-69
2021/07/04 05:56:38;;;;;;;0.10;0.10;;;;;;;;;;5061992;28;20275;-68
2021/07/04 05:59:05;;;;;;;0.00;0.00;;;;;;;;;;5062146;28;20498;-68
2021/07/04 06:01:31;;;;;;;0.00;0.00;;;;;;;;;;5061656;28;20264;-68
2021/07/04 06:03:58;;;;;;;0.00;0.00;;;;;;;;;;5052434;28;20217;-69
2021/07/04 06:06:24;;;;;;;0.00;0.00;;;;;;;;;;5057258;28;20206;-69
2021/07/04 06:08:51;;;;;;;0.00;0.00;;;;;;;;;;5061914;28;20263;-69
2021/07/04 06:11:17;;;;;;;0.00;0.00;;;;;;;;;;5062231;28;20206;-68
2021/07/04 06:13:44;;;;;;;0.00;0.00;;;;;;;;;;5062076;28;20201;-68
2021/07/04 06:16:11;;;;;;;0.00;0.00;;;;;;;;;;5053113;28;20435;-69
2021/07/04 06:18:37;;;;;;;0.10;0.10;;;;;;;;;;5049263;28;20200;-68
2021/07/04 06:21:03;;;;;;;0.00;0.00;;;;;;;;;;5065496;28;20208;-67
2021/07/04 06:23:30;;;;;;;0.00;0.00;;;;;;;;;;5065269;28;20257;-67
2021/07/04 06:25:56;;;;;;;0.00;0.00;;;;;;;;;;5064792;28;20235;-66
2021/07/04 06:28:23;;;;;;;0.08;0.08;;;;;;;;;;5065092;28;20270;-68
2021/07/04 06:30:51;;;;;;;0.00;0.00;;;;;;;;;;5065382;28;20583;-68
2021/07/04 06:33:17;;;;;;;0.00;0.00;;;;;;;;;;5065162;28;20212;-67
2021/07/04 06:35:43;;;;;;;0.00;0.00;;;;;;;;;;5065029;28;20203;-69
2021/07/04 06:38:09;;;;;;;0.08;0.08;;;;;;;;;;5064748;28;20361;-67
2021/07/04 06:40:35;;;;;;;0.00;0.00;;;;;;;;;;5064680;28;20226;-68
2021/07/04 06:43:02;;;;;;;0.00;0.00;;;;;;;;;;5059696;28;20205;-67
2021/07/04 06:45:28;;;;;;;0.00;0.00;;;;;;;;;;5056176;28;20222;-67
2021/07/04 06:47:55;;;;;;;0.00;0.00;;;;;;;;;;5064394;28;20207;-67
2021/07/04 06:50:22;;;;;;;0.00;0.00;;;;;;;;;;5064141;28;20310;-68
2021/07/04 06:52:49;;;;;;;0.00;0.00;;;;;;;;;;5064895;28;20208;-68
2021/07/04 06:55:15;;;;;;;0.10;0.10;;;;;;;;;;5064293;28;20211;-68
2021/07/04 06:57:41;;;;;;;0.00;0.00;;;;;;;;;;5064386;28;20207;-68
2021/07/04 07:00:10;;;;;;;0.00;0.00;;;;;;;;;;5063843;28;20248;-68
2021/07/04 07:02:36;;;;;;;0.00;0.00;;;;;;;;;;5051769;28;20231;-69
2021/07/04 07:05:04;;;;;;;0.00;0.00;;;;;;;;;;5062629;28;20248;-69
2021/07/04 07:07:31;;;;;;;0.00;0.00;;;;;;;;;;5063910;28;20214;-68
2021/07/04 07:09:57;;;;;;;0.00;0.00;;;;;;;;;;5063978;28;20529;-67
2021/07/04 07:12:24;;;;;;;0.40;0.40;;;;;;;;;;5064126;28;20215;-68
2021/07/04 07:14:50;;;;;;;0.00;0.00;;;;;;;;;;5063880;28;20242;-67
2021/07/04 07:17:16;;;;;;;0.00;0.00;;;;;;;;;;5064194;28;20207;-68
2021/07/04 07:19:42;;;;;;;0.10;0.10;;;;;;;;;;5064062;28;20545;-68
2021/07/04 07:22:10;;;;;;;0.00;0.00;;;;;;;;;;5063872;28;20416;-68
2021/07/04 07:24:36;;;;;;;0.10;0.10;;;;;;;;;;5063829;28;20404;-67
2021/07/04 07:27:03;;;;;;;0.00;0.00;;;;;;;;;;5063900;28;20194;-68
2021/07/04 07:29:29;;;;;;;0.00;0.00;;;;;;;;;;5063832;28;20288;-67
2021/07/04 07:31:55;;;;;;;0.03;0.03;;;;;;;;;;5064101;28;20510;-68
2021/07/04 07:34:22;;;;;;;0.00;0.00;;;;;;;;;;5063644;28;20419;-68
2021/07/04 07:36:48;;;;;;;0.00;0.00;;;;;;;;;;5063689;28;20228;-69
2021/07/04 07:39:16;;;;;;;0.10;0.10;;;;;;;;;;5049304;28;20206;-69
2021/07/04 07:41:42;;;;;;;3.30;3.03;;;;;;;;;;5063585;28;20249;-69
2021/07/04 07:44:09;;;;;;;0.00;0.00;;;;;;;;;;5063951;28;20451;-68
2021/07/04 07:46:35;;;;;;;0.05;0.05;;;;;;;;;;5063759;28;20203;-68
2021/07/04 07:49:01;;;;;;;0.00;0.00;;;;;;;;;;5063390;28;20206;-70
2021/07/04 07:51:27;;;;;;;0.00;0.00;;;;;;;;;;5063442;28;20230;-68
2021/07/04 07:53:53;;;;;;;0.00;0.00;;;;;;;;;;5063618;28;20229;-69
2021/07/04 07:56:21;;;;;;;0.00;0.00;;;;;;;;;;5062829;28;20251;-68
2021/07/04 07:58:47;;;;;;;0.00;0.00;;;;;;;;;;5062975;28;20551;-68
2021/07/04 08:01:14;;;;;;;0.00;0.00;;;;;;;;;;5063295;28;20239;-67
2021/07/04 08:03:40;;;;;;;0.10;0.10;;;;;;;;;;5062634;28;20233;-68
2021/07/04 08:06:07;;;;;;;0.10;0.10;;;;;;;;;;5062943;28;20210;-68
2021/07/04 08:08:33;;;;;;;0.10;0.10;;;;;;;;;;5062422;28;20414;-67
2021/07/04 08:10:59;;;;;;;0.00;0.00;;;;;;;;;;5063031;28;20231;-68
2021/07/04 08:13:27;;;;;;;0.00;0.00;;;;;;;;;;5048904;28;20536;-67
2021/07/04 08:15:53;;;;;;;0.00;0.00;;;;;;;;;;5063082;28;20280;-71
2021/07/04 08:18:21;;;;;;;0.00;0.00;;;;;;;;;;5062698;28;20251;-67
2021/07/04 08:20:47;;;;;;;0.00;0.00;;;;;;;;;;5054912;28;20202;-69
2021/07/04 08:23:13;;;;;;;0.00;0.00;;;;;;;;;;5057350;28;20472;-68
2021/07/04 08:25:40;;;;;;;0.00;0.00;;;;;;;;;;5049132;28;20538;-68
2021/07/04 08:28:06;;;;;;;0.10;0.10;;;;;;;;;;5063019;28;20425;-68
2021/07/04 08:30:33;;;;;;;0.00;0.00;;;;;;;;;;5062721;28;20584;-68
2021/07/04 08:33:00;;;;;;;0.00;0.00;;;;;;;;;;5062710;28;20211;-68
2021/07/04 08:35:26;;;;;;;0.00;0.00;;;;;;;;;;5063240;28;20275;-67
2021/07/04 08:37:52;;;;;;;0.00;0.00;;;;;;;;;;5061888;28;20257;-68
2021/07/04 08:40:19;;;;;;;0.00;0.00;;;;;;;;;;5062635;28;20211;-68
2021/07/04 08:42:45;;;;;;;0.10;0.10;;;;;;;;;;5062491;28;20366;-68
2021/07/04 08:45:12;;;;;;;0.00;0.00;;;;;;;;;;5062748;28;20249;-68
2021/07/04 08:47:40;;;;;;;0.00;0.00;;;;;;;;;;5062262;28;20207;-67
2021/07/04 08:50:06;;;;;;;0.00;0.00;;;;;;;;;;5062300;28;20243;-69
2021/07/04 08:52:33;;;;;;;0.00;0.00;;;;;;;;;;5062351;28;20211;-68
2021/07/04 08:55:01;;;;;;;0.00;0.00;;;;;;;;;;5054758;28;20280;-67
2021/07/04 08:57:27;;;;;;;0.00;0.00;;;;;;;;;;5062260;28;20204;-69
2021/07/04 08:59:54;;;;;;;0.00;0.00;;;;;;;;;;5062192;28;20272;-68
2021/07/04 09:02:29;;;;;;;0.00;0.00;;;;;;;;;;5062204;28;20249;-67
2021/07/04 09:05:01;;;;;;;0.00;0.00;;;;;;;;;;5062312;28;20204;-68
2021/07/04 09:07:27;;;;;;;0.00;0.00;;;;;;;;;;5060160;28;20414;-66
2021/07/04 09:09:56;;;;;;;0.00;0.00;;;;;;;;;;5059033;28;20203;-70
2021/07/04 09:12:22;;;;;;;0.03;0.03;;;;;;;;;;5059460;28;20532;-68
2021/07/04 09:14:49;;;;;;;0.00;0.00;;;;;;;;;;5062592;28;20254;-68
2021/07/04 09:17:16;;;;;;;0.00;0.00;;;;;;;;;;5062045;28;20216;-68
2021/07/04 09:19:55;;;;;;;0.00;0.00;;;;;;;;;;5056145;28;20200;-68
2021/07/04 09:22:26;;;;;;;0.03;0.03;;;;;;;;;;5056678;28;20220;-67
2021/07/04 09:24:52;;;;;;;0.00;0.00;;;;;;;;;;5050607;28;20229;-67
2021/07/04 09:27:18;;;;;;;0.00;0.00;;;;;;;;;;5061692;28;20262;-68
2021/07/04 09:29:46;;;;;;;0.00;0.00;;;;;;;;;;5061333;28;20426;-67
2021/07/04 09:32:14;;;;;;;0.00;0.00;;;;;;;;;;5058490;28;20210;-68
2021/07/04 09:34:40;;;;;;;0.00;0.00;;;;;;;;;;5058817;28;20207;-68
2021/07/04 09:37:07;;;;;;;0.00;0.00;;;;;;;;;;5061579;28;20298;-67
2021/07/04 09:39:34;;;;;;;0.08;0.08;;;;;;;;;;5061388;28;20200;-69
2021/07/04 09:42:10;;;;;;;0.00;0.00;;;;;;;;;;5061304;28;20242;-67
2021/07/04 09:44:37;;;;;;;0.00;0.00;;;;;;;;;;5060049;28;20200;-68
2021/07/04 09:47:13;;;;;;;0.00;0.00;;;;;;;;;;5061631;28;20250;-68
2021/07/04 09:49:40;;;;;;;0.00;0.00;;;;;;;;;;5063063;28;20211;-68
2021/07/04 09:52:16;;;;;;;0.00;0.00;;;;;;;;;;5065086;28;20539;-68
2021/07/04 09:54:57;;;;;;;0.00;0.00;;;;;;;;;;5065603;28;20200;-69
2021/07/04 09:57:24;;;;;;;0.00;0.00;;;;;;;;;;5057082;28;20549;-68
2021/07/04 10:00:10;;;;;;;0.10;0.10;;;;;;;;;;5065821;28;20250;-67
2021/07/04 10:02:36;;;;;;;0.08;0.08;;;;;;;;;;5058548;28;20351;-68
2021/07/04 10:05:11;;;;;;;0.00;0.00;;;;;;;;;;5063729;28;20203;-67
2021/07/04 10:07:38;;;;;;;0.00;0.00;;;;;;;;;;5062669;28;20204;-67
2021/07/04 10:10:06;;;;;;;0.00;0.00;;;;;;;;;;5065085;28;20248;-78
2021/07/04 10:12:32;;;;;;;0.00;0.00;;;;;;;;;;5065494;28;20253;-76
2021/07/04 10:14:58;;;;;;;0.00;0.00;;;;;;;;;;5063525;28;20368;-73
2021/07/04 10:17:28;;;;;;;0.00;0.00;;;;;;;;;;5063288;28;20201;-75
2021/07/04 10:19:55;;;;;;;0.00;0.00;;;;;;;;;;5065314;28;20229;-70
2021/07/04 10:22:23;;;;;;;0.00;0.00;;;;;;;;;;5063252;28;20263;-70
2021/07/04 10:24:50;;;;;;;0.00;0.00;;;;;;;;;;5063597;28;20250;-71
2021/07/04 10:27:17;;;;;;;0.00;0.00;;;;;;;;;;5062835;28;20262;-71
2021/07/04 10:29:44;;;;;;;0.00;0.00;;;;;;;;;;5061098;28;20271;-71
2021/07/04 10:32:12;;;;;;;0.00;0.00;;;;;;;;;;5060595;28;20228;-70
2021/07/04 10:34:43;;;;;;;0.00;0.00;;;;;;;;;;5064220;28;20200;-71
2021/07/04 10:37:10;;;;;;;0.00;0.00;;;;;;;;;;5062561;28;20208;-70
2021/07/04 10:39:36;;;;;;;0.00;0.00;;;;;;;;;;5058476;28;20204;-70
2021/07/04 10:42:04;;;;;;;0.00;0.00;;;;;;;;;;5060358;28;20216;-70
2021/07/04 10:44:39;;;;;;;0.00;0.00;;;;;;;;;;5060471;28;20302;-71
2021/07/04 10:47:07;;;;;;;0.00;0.00;;;;;;;;;;5062514;28;20399;-70
2021/07/04 10:49:38;;;;;;;0.00;0.00;;;;;;;;;;5063028;28;20268;-70
2021/07/04 10:52:06;;;;;;;0.00;0.00;;;;;;;;;;5063084;28;20454;-66
2021/07/04 10:54:51;;;;;;;0.00;0.00;;;;;;;;;;5061005;28;20322;-67
2021/07/04 10:57:20;;;;;;;0.00;0.00;;;;;;;;;;5059104;28;20227;-66
2021/07/04 11:00:12;;;;;;;0.00;0.00;;;;;;;;;;5062981;28;20444;-70
2021/07/04 11:02:39;;;;;;;0.00;0.00;;;;;;;;;;5061268;28;20296;-70
2021/07/04 11:05:06;;;;;;;0.00;0.00;;;;;;;;;;5062749;28;20216;-68
2021/07/04 11:07:51;;;;;;;0.00;0.00;;;;;;;;;;5063195;28;20274;-68
2021/07/04 11:10:21;;;;;;;0.00;0.00;;;;;;;;;;5060423;28;20214;-68
2021/07/04 11:12:47;;;;;;;0.00;0.00;;;;;;;;;;5055990;28;20215;-67
2021/07/04 11:15:28;;;;;;;0.00;0.00;;;;;;;;;;5063828;28;20211;-66
2021/07/04 11:18:10;;;;;;;0.00;0.00;;;;;;;;;;5060727;28;20273;-67
2021/07/04 11:20:56;;;;;;;0.00;0.00;;;;;;;;;;5060550;28;20203;-69
2021/07/04 11:23:24;;;;;;;0.00;0.00;;;;;;;;;;5057150;28;20227;-69
2021/07/04 11:25:53;;;;;;;0.00;0.00;;;;;;;;;;5059946;28;20236;-68
2021/07/04 11:28:24;;;;;;;0.00;0.00;;;;;;;;;;5059359;28;20211;-70
2021/07/04 11:30:53;;;;;;;0.00;0.00;;;;;;;;;;5057124;28;20276;-70
2021/07/04 11:33:38;;;;;;;0.00;0.00;;;;;;;;;;5063468;28;20354;-72
2021/07/04 11:36:05;;;;;;;0.00;0.00;;;;;;;;;;5056000;28;20196;-74
2021/07/04 11:38:33;;;;;;;0.00;0.00;;;;;;;;;;5060132;28;20204;-70
2021/07/04 11:40:59;;;;;;;0.00;0.00;;;;;;;;;;5060217;28;20204;-68
2021/07/04 11:43:26;;;;;;;0.00;0.00;;;;;;;;;;5060413;28;20208;-67
2021/07/04 11:45:55;;;;;;;0.00;0.00;;;;;;;;;;5062703;28;20208;-66
2021/07/04 11:48:22;;;;;;;0.00;0.00;;;;;;;;;;5063327;28;20507;-67
2021/07/04 11:50:49;;;;;;;0.00;0.00;;;;;;;;;;5063469;28;20211;-67
2021/07/04 11:53:15;;;;;;;0.00;0.00;;;;;;;;;;5060219;28;20269;-67
2021/07/04 11:55:59;;;;;;;0.00;0.00;;;;;;;;;;5063548;28;20218;-66
2021/07/04 11:58:25;;;;;;;0.00;0.00;;;;;;;;;;5063505;28;20218;-67
2021/07/04 12:00:51;;;;;;;0.00;0.00;;;;;;;;;;5063245;28;20269;-68
2021/07/04 12:03:22;;;;;;;0.00;0.00;;;;;;;;;;5063174;28;20463;-68
2021/07/04 12:05:48;;;;;;;0.00;0.00;;;;;;;;;;5063650;28;20428;-67
2021/07/04 12:08:15;;;;;;;0.00;0.00;;;;;;;;;;5063248;28;20266;-67
2021/07/04 12:10:48;;;;;;;0.00;0.00;;;;;;;;;;5063308;28;20384;-69
2021/07/04 12:13:15;;;;;;;0.00;0.00;;;;;;;;;;5061223;28;20498;-69
2021/07/04 12:15:41;;;;;;;0.00;0.00;;;;;;;;;;5061162;28;20416;-70
2021/07/04 12:18:12;;;;;;;0.00;0.00;;;;;;;;;;5063134;28;20215;-68
2021/07/04 12:20:40;;;;;;;0.00;0.00;;;;;;;;;;5053266;28;20376;-69
2021/07/04 12:23:09;;;;;;;0.00;0.00;;;;;;;;;;5061110;28;20205;-67
2021/07/04 12:25:38;;;;;;;0.00;0.00;;;;;;;;;;5062133;28;20228;-67
2021/07/04 12:28:05;;;;;;;0.00;0.00;;;;;;;;;;5057649;28;20273;-67
2021/07/04 12:30:32;;;;;;;0.00;0.00;;;;;;;;;;5062765;28;20204;-66
2021/07/04 12:32:59;;;;;;;0.00;0.00;;;;;;;;;;5053976;28;20472;-67
2021/07/04 12:35:27;;;;;;;0.00;0.00;;;;;;;;;;5059116;28;20200;-66
2021/07/04 12:37:56;;;;;;;0.00;0.00;;;;;;;;;;5062587;28;20223;-66
2021/07/04 12:40:23;;;;;;;0.00;0.00;;;;;;;;;;5062553;28;20246;-68
2021/07/04 12:42:49;;;;;;;0.00;0.00;;;;;;;;;;5061080;28;20208;-68
2021/07/04 12:45:17;;;;;;;0.35;0.35;;;;;;;;;;5062550;28;20322;-67
2021/07/04 12:47:43;;;;;;;0.00;0.00;;;;;;;;;;5059238;28;20209;-68
2021/07/04 12:50:11;;;;;;;0.00;0.00;;;;;;;;;;5056797;28;20216;-67
2021/07/04 12:52:38;;;;;;;0.00;0.00;;;;;;;;;;5070244;28;20227;-67
2021/07/04 12:55:06;;;;;;;0.00;0.00;;;;;;;;;;5062420;28;20204;-68
2021/07/04 12:57:33;;;;;;;0.00;0.00;;;;;;;;;;5062135;28;20230;-67
2021/07/04 13:00:10;;;;;;;0.00;0.00;;;;;;;;;;5062250;28;20218;-66
2021/07/04 13:02:40;;;;;;;0.00;0.00;;;;;;;;;;5054175;28;20238;-68
2021/07/04 13:05:07;;;;;;;0.10;0.10;;;;;;;;;;5062094;28;20393;-68
2021/07/04 13:07:39;;;;;;;0.00;0.00;;;;;;;;;;5061864;28;20200;-67
2021/07/04 13:10:07;;;;;;;0.00;0.00;;;;;;;;;;5061982;28;20359;-68
2021/07/04 13:12:36;;;;;;;0.00;0.00;;;;;;;;;;5061931;28;20281;-68
2021/07/04 13:15:03;;;;;;;0.00;0.00;;;;;;;;;;5061552;28;20203;-68
2021/07/04 13:17:29;;;;;;;0.00;0.00;;;;;;;;;;5062289;28;20200;-69
2021/07/04 13:19:56;;;;;;;0.00;0.00;;;;;;;;;;5062139;28;20323;-69
2021/07/04 13:22:23;;;;;;;0.00;0.00;;;;;;;;;;5059285;28;20200;-66
2021/07/04 13:24:51;;;;;;;0.00;0.00;;;;;;;;;;5064085;28;20311;-69
2021/07/04 13:27:20;;;;;;;0.00;0.00;;;;;;;;;;5062909;28;20275;-69
2021/07/04 13:29:47;;;;;;;0.00;0.00;;;;;;;;;;5063639;28;20212;-71
2021/07/04 13:32:16;;;;;;;0.00;0.00;;;;;;;;;;5061067;28;20340;-72
2021/07/04 13:34:43;;;;;;;0.00;0.00;;;;;;;;;;5059604;28;20196;-71
2021/07/04 13:37:14;;;;;;;0.13;0.13;;;;;;;;;;5062598;28;20200;-72
2021/07/04 13:40:00;;;;;;;0.00;0.00;;;;;;;;;;5065196;28;20204;-68
2021/07/04 13:42:29;;;;;;;0.00;0.00;;;;;;;;;;5064597;28;20231;-68
2021/07/04 13:44:55;;;;;;;0.00;0.00;;;;;;;;;;5065461;28;20220;-69
2021/07/04 13:47:23;;;;;;;0.00;0.00;;;;;;;;;;5065555;28;20506;-68
2021/07/04 13:49:50;;;;;;;0.00;0.00;;;;;;;;;;5059663;28;20230;-68
2021/07/04 13:52:16;;;;;;;0.03;0.03;;;;;;;;;;5059920;28;20228;-68
2021/07/04 13:54:42;;;;;;;0.00;0.00;;;;;;;;;;5065138;28;20204;-68
2021/07/04 13:57:09;;;;;;;0.00;0.00;;;;;;;;;;5065580;28;20204;-69
2021/07/04 13:59:37;;;;;;;0.00;0.00;;;;;;;;;;5064862;28;20204;-69
2021/07/04 14:02:04;;;;;;;0.00;0.00;;;;;;;;;;5059201;28;20205;-68
2021/07/04 14:04:30;;;;;;;0.20;0.20;;;;;;;;;;5064362;28;20267;-67
2021/07/04 14:06:57;;;;;;;0.00;0.00;;;;;;;;;;5064781;28;20491;-68
2021/07/04 14:09:23;;;;;;;0.00;0.00;;;;;;;;;;5063583;28;20222;-67
2021/07/04 14:11:49;;;;;;;0.00;0.00;;;;;;;;;;5058985;28;20234;-69
2021/07/04 14:14:15;;;;;;;0.00;0.00;;;;;;;;;;5060581;28;20220;-71
2021/07/04 14:16:44;;;;;;;0.00;0.00;;;;;;;;;;5063489;28;20207;-71
2021/07/04 14:19:11;;;;;;;0.00;0.00;;;;;;;;;;5054608;28;20208;-70
2021/07/04 14:21:37;;;;;;;0.00;0.00;;;;;;;;;;5065297;28;20386;-70
2021/07/04 14:24:03;;;;;;;0.00;0.00;;;;;;;;;;5065240;28;20250;-70
2021/07/04 14:26:30;;;;;;;0.00;0.00;;;;;;;;;;5065263;28;20585;-70
2021/07/04 14:28:56;;;;;;;0.00;0.00;;;;;;;;;;5064837;28;20254;-69
2021/07/04 14:31:22;;;;;;;0.00;0.00;;;;;;;;;;5063839;28;20240;-71
2021/07/04 14:33:50;;;;;;;0.00;0.00;;;;;;;;;;5062296;28;20491;-71
2021/07/04 14:36:16;;;;;;;0.00;0.00;;;;;;;;;;5061220;28;20271;-72
2021/07/04 14:38:42;;;;;;;0.00;0.00;;;;;;;;;;5062850;28;20200;-73
2021/07/04 14:41:08;;;;;;;0.00;0.00;;;;;;;;;;5064472;28;20204;-72
2021/07/04 14:43:35;;;;;;;0.20;0.20;;;;;;;;;;5064320;28;20200;-70
2021/07/04 14:46:02;;;;;;;0.00;0.00;;;;;;;;;;5060445;28;20206;-67